Terminal Aerodrome Forecast
Issued by NWS

Home | Current Version | Previous Version | Text Only | Print | Product List | Glossary On
Versions: 1 2 3 4 5 6 7 8 9 10 11 12 13 14
000
FTUS43 KILX 221140
TAFDEC
TAF
KDEC 221140Z 2212/2312 03005KT 4SM BR VCSH BKN050
      TEMPO 2212/2214 1SM BR
     FM221400 03008KT 1SM BR OVC008
     FM221700 02012KT 4SM BR VCSH OVC020
     FM230000 35013G21KT P6SM BKN015=

USA.gov is the U.S. government's official web portal to all federal, state and local government web resources and services.